MHD weather

Mashhad International Airport
Mashhad, Razavi Khorasan Province, Iran

Public forecast

Using degrees Celsius for public forecast. Weather courtesy of forecast.io.

Current aviation weather report (METAR) for Mashhad International Airport

Retrieved 2020/06/01 04:00 UTC (19 minutes ago):

OIMM 010400Z 00000KT CAVOK 28/00 Q1015 A3000

Aviation forecast (TAF) for Mashhad International Airport

Retrieved 2020-06-01 00:33 UTC (4 hours ago):

TAF OIMM 312310Z 0100/0206 07008KT 8000 NSC